Time;durP1;ratioP1;P1;durP2;ratioP2;P2;SDS_P1;SDS_P2;PMS_P1;PMS_P2;Temp;Humidity;BMP_temperature;BMP_pressure;BME280_temperature;BME280_humidity;BME280_pressure;Samples;Min_cycle;Max_cycle;Signal;HPM_P1;HPM_P2
2022/02/14 00:00:10;;;;;;;;;;;;;;;5.32;52.15;100520.84;4368968;32;34254;-80
2022/02/14 00:02:38;;;;;;;;;;;;;;;5.14;52.23;100517.56;4380243;32;33956;-78
2022/02/14 00:05:06;;;;;;;;;;;;;;;4.81;53.62;100518.75;4358413;32;36807;-79
2022/02/14 00:07:33;;;;;;;;;;;;;;;5.17;52.50;100517.38;4385700;32;34360;-79
2022/02/14 00:10:01;;;;;;;;;;;;;;;5.15;52.49;100524.53;4370002;32;33916;-78
2022/02/14 00:12:31;;;;;;;;;;;;;;;5.41;51.59;100512.38;4378075;32;33984;-79
2022/02/14 00:14:59;;;;;;;;;;;;;;;5.32;51.93;100515.59;4373917;32;35390;-79
2022/02/14 00:17:27;;;;;;;;;;;;;;;5.33;51.91;100510.22;4374467;32;34579;-78
2022/02/14 00:19:55;;;;;;;;;;;;;;;5.25;52.22;100509.84;4385890;32;34247;-79
2022/02/14 00:22:23;;;;;;;;;;;;;;;5.26;52.09;100506.25;4382081;32;33065;-78
2022/02/14 00:24:51;;;;;;;;;;;;;;;5.42;51.94;100501.75;4373713;32;36129;-78
2022/02/14 00:27:19;;;;;;;;;;;;;;;5.67;50.93;100496.62;4371640;32;34340;-79
2022/02/14 00:29:47;;;;;;;;;;;;;;;5.30;52.07;100491.09;4375502;32;32770;-79
2022/02/14 00:32:15;;;;;;;;;;;;;;;5.29;51.96;100490.22;4386530;32;33909;-78
2022/02/14 00:34:43;;;;;;;;;;;;;;;5.23;52.17;100484.50;4373178;32;35411;-78
2022/02/14 00:37:12;;;;;;;;;;;;;;;5.29;52.12;100478.84;4376920;32;34480;-78
2022/02/14 00:39:40;;;;;;;;;;;;;;;5.15;52.33;100471.78;4379361;32;33508;-79
2022/02/14 00:42:07;;;;;;;;;;;;;;;5.17;52.60;100477.81;4374244;32;36381;-78
2022/02/14 00:44:35;;;;;;;;;;;;;;;5.43;51.71;100477.87;4387376;32;34914;-80
2022/02/14 00:47:03;;;;;;;;;;;;;;;5.27;52.36;100473.66;4370468;32;34422;-79
2022/02/14 00:49:31;;;;;;;;;;;;;;;5.29;52.42;100470.94;4383665;32;34517;-79
2022/02/14 00:51:58;;;;;;;;;;;;;;;5.27;52.49;100462.28;4373865;32;34910;-79
2022/02/14 00:54:26;;;;;;;;;;;;;;;5.06;52.78;100467.06;4373286;32;36128;-80
2022/02/14 00:56:54;;;;;;;;;;;;;;;5.22;52.61;100469.59;4383218;32;34763;-79
2022/02/14 00:59:24;;;;;;;;;;;;;;;5.40;51.86;100466.69;4388661;32;32790;-78
2022/02/14 01:01:51;;;;;;;;;;;;;;;5.14;52.66;100467.44;4380398;32;34828;-78
2022/02/14 01:04:19;;;;;;;;;;;;;;;5.31;52.26;100464.63;4362190;32;35780;-79
2022/02/14 01:06:47;;;;;;;;;;;;;;;5.29;52.08;100458.56;4376355;32;34541;-79
2022/02/14 01:09:14;;;;;;;;;;;;;;;5.32;52.13;100454.91;4379433;32;33364;-79
2022/02/14 01:11:42;;;;;;;;;;;;;;;5.32;52.03;100452.28;4362558;32;33896;-79
2022/02/14 01:14:14;;;;;;;;;;;;;;;5.28;52.11;100448.13;4372024;32;36324;-79
2022/02/14 01:16:42;;;;;;;;;;;;;;;5.15;52.37;100442.78;4362619;32;35489;-78
2022/02/14 01:19:09;;;;;;;;;;;;;;;5.14;52.48;100441.09;4376863;32;33519;-79
2022/02/14 01:21:37;;;;;;;;;;;;;;;4.91;53.12;100444.25;4375598;32;34314;-79
2022/02/14 01:24:06;;;;;;;;;;;;;;;4.83;53.06;100443.03;4383581;32;35026;-78
2022/02/14 01:26:33;;;;;;;;;;;;;;;4.88;53.18;100435.69;4373896;32;33511;-78
2022/02/14 01:29:01;;;;;;;;;;;;;;;4.97;52.68;100429.84;4365537;32;34048;-79
2022/02/14 01:31:28;;;;;;;;;;;;;;;4.88;53.10;100422.50;4392584;32;34747;-79
2022/02/14 01:33:56;;;;;;;;;;;;;;;4.85;53.22;100423.56;4373077;32;35750;-79
2022/02/14 01:36:23;;;;;;;;;;;;;;;4.71;53.62;100423.53;4380926;32;35880;-79
2022/02/14 01:38:51;;;;;;;;;;;;;;;4.73;53.63;100419.03;4391189;32;34231;-79
2022/02/14 01:41:19;;;;;;;;;;;;;;;4.45;54.56;100416.34;4381190;32;33379;-79
2022/02/14 01:43:47;;;;;;;;;;;;;;;4.56;54.38;100420.97;4380253;32;35225;-79
2022/02/14 01:46:15;;;;;;;;;;;;;;;4.49;54.57;100417.00;4371745;32;34049;-78
2022/02/14 01:48:42;;;;;;;;;;;;;;;4.49;54.45;100415.25;4361054;32;34237;-79
2022/02/14 01:51:10;;;;;;;;;;;;;;;4.11;55.51;100407.88;4385919;32;33661;-79
2022/02/14 01:53:38;;;;;;;;;;;;;;;4.08;55.77;100413.34;4381883;32;36552;-79
2022/02/14 01:56:05;;;;;;;;;;;;;;;4.21;55.56;100401.12;4377282;32;33610;-78
2022/02/14 01:58:32;;;;;;;;;;;;;;;4.18;55.64;100403.97;4376300;32;33837;-79
2022/02/14 02:01:00;;;;;;;;;;;;;;;4.23;55.42;100399.25;4383599;32;32533;-79
2022/02/14 02:03:28;;;;;;;;;;;;;;;3.88;55.96;100390.78;4373620;32;35177;-78
2022/02/14 02:05:56;;;;;;;;;;;;;;;3.78;56.71;100394.88;4385076;32;34597;-78
2022/02/14 02:08:24;;;;;;;;;;;;;;;4.12;55.71;100388.50;4368754;32;33584;-79
2022/02/14 02:12:22;;;;;;;;;;;;;;;3.89;56.29;100383.75;4377304;32;33790;-79
2022/02/14 02:13:47;;;;;;;;;;;;;;;3.61;57.24;100379.19;4389866;32;35119;-79
2022/02/14 02:16:15;;;;;;;;;;;;;;;3.44;57.78;100387.22;4366515;32;36712;-78
2022/02/14 02:18:43;;;;;;;;;;;;;;;3.46;57.60;100382.72;4362254;32;34774;-79
2022/02/14 02:21:11;;;;;;;;;;;;;;;3.41;58.01;100391.78;4376845;32;34165;-78
2022/02/14 02:23:39;;;;;;;;;;;;;;;3.47;57.67;100379.16;4376151;32;35209;-79
2022/02/14 02:26:07;;;;;;;;;;;;;;;3.27;58.14;100387.28;4390193;32;34919;-79
2022/02/14 02:28:36;;;;;;;;;;;;;;;3.64;57.13;100384.31;4355392;32;33435;-79
2022/02/14 02:31:04;;;;;;;;;;;;;;;3.61;57.10;100379.19;4377626;32;33922;-78
2022/02/14 02:33:32;;;;;;;;;;;;;;;3.62;57.07;100378.25;4374893;32;35280;-79
2022/02/14 02:35:59;;;;;;;;;;;;;;;3.72;56.21;100370.72;4391900;32;35103;-78
2022/02/14 02:38:27;;;;;;;;;;;;;;;3.99;55.66;100371.75;4388950;32;33478;-79
2022/02/14 02:40:55;;;;;;;;;;;;;;;3.84;56.07;100362.97;4357589;32;33690;-78
2022/02/14 02:43:23;;;;;;;;;;;;;;;3.79;56.20;100354.47;4371174;32;36247;-79
2022/02/14 02:45:56;;;;;;;;;;;;;;;3.84;55.91;100357.69;4373656;32;34478;-79
2022/02/14 02:48:23;;;;;;;;;;;;;;;3.68;56.44;100348.16;4376229;32;32879;-78
2022/02/14 02:51:04;;;;;;;;;;;;;;;3.79;56.14;100346.56;4378305;32;35250;-79
2022/02/14 02:53:33;;;;;;;;;;;;;;;3.63;56.64;100351.03;4380055;32;35158;-79
2022/02/14 02:56:02;;;;;;;;;;;;;;;3.66;56.40;100348.22;4383487;32;35357;-79
2022/02/14 02:58:29;;;;;;;;;;;;;;;3.66;56.37;100356.13;4371618;32;33420;-79
2022/02/14 03:00:58;;;;;;;;;;;;;;;3.82;55.94;100342.94;4359254;32;33883;-78
2022/02/14 03:03:26;;;;;;;;;;;;;;;3.88;55.80;100343.41;4370349;32;35154;-79
2022/02/14 03:05:53;;;;;;;;;;;;;;;3.99;55.23;100350.69;4369901;32;35168;-78
2022/02/14 03:08:21;;;;;;;;;;;;;;;3.59;56.22;100346.88;4373767;32;34252;-78
2022/02/14 03:10:50;;;;;;;;;;;;;;;3.73;56.03;100338.19;4393743;32;35031;-78
2022/02/14 03:13:18;;;;;;;;;;;;;;;3.62;56.47;100348.50;4382668;32;34833;-78
2022/02/14 03:15:48;;;;;;;;;;;;;;;3.77;55.87;100343.19;4359903;32;34211;-79
2022/02/14 03:18:16;;;;;;;;;;;;;;;3.50;56.43;100347.41;4385700;32;34310;-79
2022/02/14 03:20:43;;;;;;;;;;;;;;;3.62;56.28;100341.44;4361399;32;32020;-78
2022/02/14 03:23:11;;;;;;;;;;;;;;;3.49;56.50;100332.56;4374869;32;35096;-79
2022/02/14 03:25:39;;;;;;;;;;;;;;;3.67;56.14;100335.91;4378300;32;33877;-79
2022/02/14 03:28:06;;;;;;;;;;;;;;;3.40;56.93;100340.97;4383206;32;33477;-79
2022/02/14 03:30:34;;;;;;;;;;;;;;;3.48;56.71;100325.59;4382090;32;33936;-78
2022/02/14 03:33:02;;;;;;;;;;;;;;;3.43;56.88;100326.81;4380432;32;37081;-79
2022/02/14 03:35:29;;;;;;;;;;;;;;;3.71;56.06;100322.50;4378747;32;34636;-78
2022/02/14 03:37:59;;;;;;;;;;;;;;;3.50;56.66;100320.28;4376841;32;34189;-79
2022/02/14 03:40:27;;;;;;;;;;;;;;;3.41;56.79;100326.88;4381841;32;35134;-79
2022/02/14 03:42:56;;;;;;;;;;;;;;;3.56;56.35;100315.50;4352952;32;36393;-78
2022/02/14 03:45:24;;;;;;;;;;;;;;;3.40;56.53;100325.19;4377309;32;34927;-78
2022/02/14 03:47:52;;;;;;;;;;;;;;;3.53;56.22;100326.19;4376006;32;34374;-79
2022/02/14 03:50:19;;;;;;;;;;;;;;;3.72;55.46;100323.34;4391217;32;33672;-78
2022/02/14 03:52:47;;;;;;;;;;;;;;;3.81;55.11;100318.41;4357466;32;36459;-79
2022/02/14 03:55:14;;;;;;;;;;;;;;;3.59;56.02;100319.75;4375723;32;34063;-78
2022/02/14 03:57:42;;;;;;;;;;;;;;;3.47;56.28;100315.16;4370615;32;33702;-78
2022/02/14 04:00:10;;;;;;;;;;;;;;;3.47;56.29;100317.78;4377792;32;33496;-79
2022/02/14 04:02:39;;;;;;;;;;;;;;;3.31;56.88;100317.81;4374353;32;36149;-78
2022/02/14 04:05:07;;;;;;;;;;;;;;;3.22;56.85;100315.72;4395827;32;34910;-79
2022/02/14 04:07:34;;;;;;;;;;;;;;;3.35;56.74;100318.50;4377353;32;35192;-79
2022/02/14 04:10:03;;;;;;;;;;;;;;;3.17;57.04;100315.13;4379136;32;34405;-78
2022/02/14 04:12:30;;;;;;;;;;;;;;;3.13;57.21;100312.75;4390781;32;34404;-79
2022/02/14 04:14:58;;;;;;;;;;;;;;;3.49;56.19;100308.06;4373401;32;34641;-78
2022/02/14 04:17:26;;;;;;;;;;;;;;;3.33;56.36;100313.31;4364396;32;33783;-78
2022/02/14 04:19:54;;;;;;;;;;;;;;;3.16;56.99;100313.44;4372704;32;34054;-78
2022/02/14 04:22:21;;;;;;;;;;;;;;;3.43;56.50;100303.97;4371217;32;35081;-78
2022/02/14 04:24:49;;;;;;;;;;;;;;;3.25;57.06;100307.66;4391077;32;34755;-79
2022/02/14 04:27:17;;;;;;;;;;;;;;;3.09;57.50;100305.97;4363923;32;33269;-78
2022/02/14 04:29:45;;;;;;;;;;;;;;;2.85;58.33;100302.06;4354640;32;35097;-79
2022/02/14 04:32:12;;;;;;;;;;;;;;;2.73;58.76;100306.22;4366440;32;34560;-79
2022/02/14 04:34:40;;;;;;;;;;;;;;;2.68;58.73;100305.59;4383014;32;34565;-78
2022/02/14 04:37:07;;;;;;;;;;;;;;;2.76;58.73;100305.19;4390692;32;33067;-78
2022/02/14 04:39:35;;;;;;;;;;;;;;;2.79;58.69;100298.00;4383246;32;33948;-78
2022/02/14 04:42:03;;;;;;;;;;;;;;;2.72;58.87;100295.78;4370986;32;36258;-78
2022/02/14 04:44:30;;;;;;;;;;;;;;;2.79;58.64;100300.63;4386272;32;34001;-78
2022/02/14 04:46:58;;;;;;;;;;;;;;;2.88;58.13;100301.91;4374774;32;34035;-79
2022/02/14 04:49:26;;;;;;;;;;;;;;;2.92;57.83;100293.75;4384063;32;34245;-78
2022/02/14 04:51:53;;;;;;;;;;;;;;;2.92;57.80;100301.66;4375384;32;33432;-79
2022/02/14 04:54:21;;;;;;;;;;;;;;;2.91;57.64;100302.56;4383676;32;34704;-79
2022/02/14 04:56:49;;;;;;;;;;;;;;;2.92;57.64;100300.78;4385301;32;33500;-79
2022/02/14 04:59:16;;;;;;;;;;;;;;;2.78;57.92;100296.28;4376036;32;33863;-79
2022/02/14 05:01:44;;;;;;;;;;;;;;;2.75;57.79;100300.88;4385920;32;35324;-79
2022/02/14 05:04:12;;;;;;;;;;;;;;;3.09;57.27;100284.94;4387384;32;34836;-78
2022/02/14 05:06:40;;;;;;;;;;;;;;;2.87;57.60;100289.69;4363448;32;33167;-79
2022/02/14 05:09:08;;;;;;;;;;;;;;;2.56;58.79;100294.94;4387914;32;34182;-79
2022/02/14 05:11:38;;;;;;;;;;;;;;;2.85;58.11;100295.03;4382903;32;36613;-79
2022/02/14 05:24:00;;;;;;;;;;;;;;;2.06;61.15;100301.16;4379854;32;36507;-79
2022/02/14 05:30:51;;;;;;;;;;;;;;;2.08;61.46;100296.66;4388631;32;32864;-78
2022/02/14 05:34:01;;;;;;;;;;;;;;;2.11;61.28;100299.13;4375375;32;34214;-77
2022/02/14 05:36:41;;;;;;;;;;;;;;;;;;;;;
2022/02/14 05:40:02;;;;;;;;;;;;;;;;;;;;;
2022/02/14 05:43:09;;;;;;;;;;;;;;;;;;;;;
2022/02/14 05:52:44;;;;;;;;;;;;;;;;;;;;;
2022/02/14 06:01:47;;;;;;;;;;;;;;;1.55;63.44;100319.50;4372291;32;34400;-79
2022/02/14 06:04:43;;;;;;;;;;;;;;;1.55;63.56;100312.50;4380013;32;36319;-79
2022/02/14 06:11:56;;;;;;;;;;;;;;;1.49;63.91;100312.78;4377437;32;33419;-78
2022/02/14 06:15:07;;;;;;;;;;;;;;;1.53;63.88;100305.63;4353535;32;34247;-78
2022/02/14 06:30:50;;;;;;;;;;;;;;;1.07;65.75;100311.41;4308492;33;35533;-77
2022/02/14 06:40:21;;;;;;;;;;;;;;;1.27;65.54;100299.03;4389900;31;3876033;-77
2022/02/14 06:47:04;;;;;;;;;;;;;;;1.46;64.81;100302.47;4485882;31;34104;-77
2022/02/14 07:01:59;;;;;;;;;;;;;;;;;;;;;
2022/02/14 07:07:57;;;;;;;;;;;;;;;1.80;64.08;100306.88;4387725;32;34760;-77
2022/02/14 07:20:54;;;;;;;;;;;;;;;1.95;64.04;100304.31;4367230;32;34471;-78
2022/02/14 07:24:13;;;;;;;;;;;;;;;1.95;64.01;100304.31;4381846;32;33896;-77
2022/02/14 07:26:51;;;;;;;;;;;;;;;1.52;65.44;100309.16;4375386;32;36249;-78
2022/02/14 07:30:08;;;;;;;;;;;;;;;1.78;65.17;100308.72;4363952;32;34777;-78
2022/02/14 07:33:16;;;;;;;;;;;;;;;2.03;64.47;100303.91;4355174;33;33040;-78
2022/02/14 07:39:11;;;;;;;;;;;;;;;;;;;;;
2022/02/14 07:41:56;;;;;;;;;;;;;;;1.99;64.41;100311.09;4369791;32;34881;-78
2022/02/14 07:44:57;;;;;;;;;;;;;;;2.02;64.82;100312.72;4367514;32;33923;-78
2022/02/14 07:48:56;;;;;;;;;;;;;;;2.22;64.35;100309.91;4355000;33;34831;-78
2022/02/14 07:51:36;;;;;;;;;;;;;;;;;;;;;
2022/02/14 07:58:34;;;;;;;;;;;;;;;2.75;62.81;100311.37;4360520;32;33171;-78
2022/02/14 08:04:26;;;;;;;;;;;;;;;;;;;;;
2022/02/14 08:14:21;;;;;;;;;;;;;;;3.40;60.74;100293.63;4374422;32;33952;-78
2022/02/14 08:17:01;;;;;;;;;;;;;;;;;;;;;
2022/02/14 08:36:14;;;;;;;;;;;;;;;;;;;;;
2022/02/14 08:52:29;;;;;;;;;;;;;;;4.43;59.43;100243.53;4404407;32;32437;-79
2022/02/14 09:04:25;;;;;;;;;;;;;;;4.84;57.76;100233.87;4416820;32;33903;-79
2022/02/14 09:07:33;;;;;;;;;;;;;;;;;;;;;
2022/02/14 09:10:37;;;;;;;;;;;;;;;;;;;;;
2022/02/14 09:26:09;;;;;;;;;;;;;;;;;;;;;
2022/02/14 09:29:09;;;;;;;;;;;;;;;;;;;;;
2022/02/14 09:32:39;;;;;;;;;;;;;;;5.77;56.16;100205.53;4417341;32;34572;-79
2022/02/14 09:39:05;;;;;;;;;;;;;;;6.03;55.26;100198.50;4419362;32;31916;-79
2022/02/14 09:42:07;;;;;;;;;;;;;;;6.42;53.76;100195.72;4391152;32;33301;-78
2022/02/14 09:44:27;;;;;;;;;;;;;;;6.52;53.51;100194.94;4409053;32;35023;-78
2022/02/14 09:48:14;;;;;;;;;;;;;;;6.65;53.46;100184.34;4412489;32;35890;-79
2022/02/14 09:57:40;;;;;;;;;;;;;;;6.83;52.92;100178.59;4424949;32;33953;-80
2022/02/14 10:03:55;;;;;;;;;;;;;;;7.36;51.20;100164.88;4468559;32;33347;-78
2022/02/14 10:23:21;;;;;;;;;;;;;;;8.10;49.98;100140.56;4430380;32;34661;-78
2022/02/14 10:29:46;;;;;;;;;;;;;;;8.45;49.44;100144.78;4411461;32;32607;-79
2022/02/14 10:38:51;;;;;;;;;;;;;;;8.47;48.79;100128.78;4417436;32;34230;-79
2022/02/14 10:57:44;;;;;;;;;;;;;;;8.53;50.42;100106.09;4424111;32;34778;-78
2022/02/14 11:01:03;;;;;;;;;;;;;;;8.66;49.25;100101.50;4402714;32;35248;-79
2022/02/14 11:04:16;;;;;;;;;;;;;;;8.57;49.24;100094.28;4404383;32;35214;-78
2022/02/14 11:15:56;;;;;;;;;;;;;;;8.93;48.69;100085.09;4315621;33;33278;-78
2022/02/14 11:19:17;;;;;;;;;;;;;;;8.80;49.42;100079.97;4328605;33;33881;-79
2022/02/14 11:27:34;;;;;;;;;;;;;;;9.14;48.67;100072.69;4359908;32;34219;-79
2022/02/14 11:34:11;;;;;;;;;;;;;;;9.44;47.75;100068.31;4364815;32;34100;-79
2022/02/14 11:37:47;;;;;;;;;;;;;;;9.19;48.57;100058.06;4370602;32;35844;-79
2022/02/14 11:44:14;;;;;;;;;;;;;;;9.29;49.19;100055.50;4392214;32;32059;-79
2022/02/14 12:09:46;;;;;;;;;;;;;;;9.47;48.02;100022.88;4339192;33;31261;-83
2022/02/14 12:14:10;;;;;;;;;;;;;;;;;;;;;
2022/02/14 12:28:09;;;;;;;;;;;;;;;;;;;;;
2022/02/14 12:31:17;;;;;;;;;;;;;;;;;;;;;
2022/02/14 12:44:08;;;;;;;;;;;;;;;;;;;;;
2022/02/14 12:57:18;;;;;;;;;;;;;;;10.20;45.63;99969.50;4407332;32;34364;-82
2022/02/14 13:02:49;;;;;;;;;;;;;;;9.95;45.75;99962.84;4375713;32;32902;-83
2022/02/14 13:06:22;;;;;;;;;;;;;;;9.99;45.96;99955.41;4407527;32;32405;-83
2022/02/14 13:13:01;;;;;;;;;;;;;;;10.57;45.46;99951.88;4406703;32;34775;-82
2022/02/14 13:18:50;;;;;;;;;;;;;;;10.32;45.70;99945.31;4404655;32;33790;-82
2022/02/14 13:25:09;;;;;;;;;;;;;;;10.05;46.24;99926.53;4410077;32;34214;-83
2022/02/14 13:30:52;;;;;;;;;;;;;;;;;;;;;
2022/02/14 13:43:03;;;;;;;;;;;;;;;10.82;44.43;99914.03;4327421;32;33221;-82
2022/02/14 13:48:59;;;;;;;;;;;;;;;10.44;45.20;99890.12;4283232;33;33614;-82
2022/02/14 13:58:25;;;;;;;;;;;;;;;;;;;;;
2022/02/14 14:10:33;;;;;;;;;;;;;;;;;;;;;
2022/02/14 14:14:02;;;;;;;;;;;;;;;11.80;42.54;99856.44;4389176;32;34719;-82
2022/02/14 14:17:16;;;;;;;;;;;;;;;11.98;42.50;99861.78;4379008;32;34035;-83
2022/02/14 14:29:28;;;;;;;;;;;;;;;;;;;;;
2022/02/14 14:35:27;;;;;;;;;;;;;;;10.67;45.67;99851.63;4345096;32;33711;-82
2022/02/14 14:38:37;;;;;;;;;;;;;;;;;;;;;
2022/02/14 14:41:23;;;;;;;;;;;;;;;10.83;45.71;99844.69;4403877;32;33529;-81
2022/02/14 14:45:23;;;;;;;;;;;;;;;11.16;45.01;99838.00;4397475;32;33186;-82
2022/02/14 14:50:36;;;;;;;;;;;;;;;10.85;45.55;99837.41;4401022;32;33769;-82
2022/02/14 14:53:50;;;;;;;;;;;;;;;10.78;45.71;99831.00;4385331;32;33115;-82
2022/02/14 15:00:54;;;;;;;;;;;;;;;10.74;45.80;99824.28;4390813;32;35226;-82
2022/02/14 15:03:18;;;;;;;;;;;;;;;;;;;;;
2022/02/14 15:06:03;;;;;;;;;;;;;;;10.48;46.17;99811.75;4382018;32;32873;-82
2022/02/14 15:09:50;;;;;;;;;;;;;;;10.66;45.86;99810.03;4367589;32;32986;-82
2022/02/14 15:18:06;;;;;;;;;;;;;;;;;;;;;
2022/02/14 15:21:41;;;;;;;;;;;;;;;10.39;45.91;99833.87;4414145;32;34645;-81
2022/02/14 15:28:21;;;;;;;;;;;;;;;10.24;45.45;99835.28;4429819;32;34152;-82
2022/02/14 15:30:51;;;;;;;;;;;;;;;10.18;45.58;99826.06;4448395;32;33099;-81
2022/02/14 15:42:51;;;;;;;;;;;;;;;10.46;45.05;99822.53;4485661;31;32510;-82
2022/02/14 15:52:14;;;;;;;;;;;;;;;10.37;45.10;99806.59;4498306;31;35106;-82
2022/02/14 15:55:12;;;;;;;;;;;;;;;10.29;45.40;99803.81;4462398;32;34123;-82
2022/02/14 15:58:05;;;;;;;;;;;;;;;10.39;45.28;99807.28;4477438;31;33942;-82
2022/02/14 16:01:03;;;;;;;;;;;;;;;10.39;45.34;99802.78;4390052;32;33609;-83
2022/02/14 16:07:25;;;;;;;;;;;;;;;;;;;;;
2022/02/14 16:21:03;;;;;;;;;;;;;;;10.11;46.54;99802.84;4406748;32;31573;-81
2022/02/14 16:24:11;;;;;;;;;;;;;;;10.10;46.74;99801.19;4397072;32;34304;-82
2022/02/14 16:27:34;;;;;;;;;;;;;;;9.95;47.44;99798.06;4401033;32;34039;-82
2022/02/14 16:30:50;;;;;;;;;;;;;;;10.08;47.33;99801.31;4397082;32;35041;-84
2022/02/14 16:40:47;;;;;;;;;;;;;;;9.96;48.10;99804.22;4429269;32;33454;-82
2022/02/14 16:43:51;;;;;;;;;;;;;;;;;;;;;
2022/02/14 16:46:36;;;;;;;;;;;;;;;9.92;48.41;99794.84;4425163;32;32270;-83
2022/02/14 16:49:26;;;;;;;;;;;;;;;;;;;;;
2022/02/14 16:59:22;;;;;;;;;;;;;;;10.00;48.60;99798.47;4409343;32;32986;-83
2022/02/14 17:17:27;;;;;;;;;;;;;;;9.80;48.85;99788.84;4445980;32;34582;-84
2022/02/14 17:20:14;;;;;;;;;;;;;;;9.60;49.33;99784.50;4434872;32;35157;-84
2022/02/14 17:23:16;;;;;;;;;;;;;;;9.61;49.41;99772.87;4438858;32;33368;-82
2022/02/14 17:33:32;;;;;;;;;;;;;;;9.69;49.08;99780.16;4436082;32;34156;-84
2022/02/14 17:36:17;;;;;;;;;;;;;;;9.65;49.10;99776.09;4436488;32;33378;-84
2022/02/14 17:55:53;;;;;;;;;;;;;;;9.93;47.99;99783.25;4431460;32;35655;-84
2022/02/14 17:59:33;;;;;;;;;;;;;;;9.62;49.08;99784.34;4421275;32;34773;-83
2022/02/14 18:02:25;;;;;;;;;;;;;;;9.72;48.38;99777.22;4399411;32;33367;-83
2022/02/14 18:05:37;;;;;;;;;;;;;;;;;;;;;
2022/02/14 18:15:32;;;;;;;;;;;;;;;;;;;;;
2022/02/14 18:21:40;;;;;;;;;;;;;;;;;;;;;
2022/02/14 18:24:49;;;;;;;;;;;;;;;;;;;;;
2022/02/14 18:36:54;;;;;;;;;;;;;;;10.10;49.31;99761.31;4375066;32;33692;-83
2022/02/14 19:21:42;;;;;;;;;;;;;;;9.00;52.96;99739.50;4328295;33;34417;-83
2022/02/14 19:37:09;;;;;;;;;;;;;;;9.50;52.25;99743.81;4335138;32;34215;-83
2022/02/14 19:52:16;;;;;;;;;;;;;;;9.10;54.32;99737.72;4341548;32;33392;-84
2022/02/14 19:55:49;;;;;;;;;;;;;;;9.20;54.29;99730.66;4416904;32;32920;-83
2022/02/14 20:02:05;;;;;;;;;;;;;;;8.97;55.42;99738.97;4462992;32;33608;-84
2022/02/14 20:04:36;;;;;;;;;;;;;;;9.01;55.47;99733.25;4458662;32;34307;-83
2022/02/14 20:07:36;;;;;;;;;;;;;;;;;;;;;
2022/02/14 20:10:38;;;;;;;;;;;;;;;;;;;;;
2022/02/14 20:13:27;;;;;;;;;;;;;;;8.99;55.93;99723.75;4457968;32;34807;-82
2022/02/14 20:29:05;;;;;;;;;;;;;;;8.97;59.24;99715.09;4441905;32;34105;-83
2022/02/14 20:38:38;;;;;;;;;;;;;;;;;;;;;
2022/02/14 20:41:56;;;;;;;;;;;;;;;;;;;;;
2022/02/14 21:00:41;;;;;;;;;;;;;;;;;;;;;
2022/02/14 21:03:43;;;;;;;;;;;;;;;;;;;;;
2022/02/14 21:12:53;;;;;;;;;;;;;;;;;;;;;
2022/02/14 21:22:33;;;;;;;;;;;;;;;8.28;68.73;99697.38;4357407;32;33083;-85
2022/02/14 21:35:54;;;;;;;;;;;;;;;8.55;68.23;99695.84;4375186;32;33331;-83
2022/02/14 21:44:44;;;;;;;;;;;;;;;;;;;;;
2022/02/14 21:51:13;;;;;;;;;;;;;;;;;;;;;
2022/02/14 21:57:12;;;;;;;;;;;;;;;;;;;;;
2022/02/14 22:04:18;;;;;;;;;;;;;;;7.99;72.08;99684.91;4399386;32;34214;-82
2022/02/14 22:16:08;;;;;;;;;;;;;;;8.40;69.55;99669.78;4402117;32;34491;-85
2022/02/14 22:19:12;;;;;;;;;;;;;;;8.48;69.38;99661.19;4403464;32;34666;-84
2022/02/14 22:22:34;;;;;;;;;;;;;;;8.36;70.12;99663.09;4415795;32;34663;-84
2022/02/14 22:25:23;;;;;;;;;;;;;;;8.23;69.84;99669.59;4413886;32;33199;-84
2022/02/14 22:31:57;;;;;;;;;;;;;;;8.38;69.45;99662.97;4344241;33;34475;-84
2022/02/14 22:34:21;;;;;;;;;;;;;;;8.06;70.55;99660.44;4329202;33;33909;-84
2022/02/14 22:44:37;;;;;;;;;;;;;;;8.11;70.48;99660.03;4399453;32;35119;-85
2022/02/14 22:47:38;;;;;;;;;;;;;;;8.05;70.62;99650.81;4376994;32;34632;-85
2022/02/14 22:53:20;;;;;;;;;;;;;;;8.10;70.46;99651.22;4432955;32;33162;-85
2022/02/14 22:56:47;;;;;;;;;;;;;;;8.06;70.73;99651.63;4469351;31;36090;-84
2022/02/14 22:59:42;;;;;;;;;;;;;;;;;;;;;
2022/02/14 23:05:51;;;;;;;;;;;;;;;;;;;;;
2022/02/14 23:15:10;;;;;;;;;;;;;;;;;;;;;
2022/02/14 23:18:14;;;;;;;;;;;;;;;;;;;;;
2022/02/14 23:20:59;;;;;;;;;;;;;;;8.62;68.46;99622.72;4480609;31;35069;-85
2022/02/14 23:24:47;;;;;;;;;;;;;;;8.96;67.25;99623.19;4477162;31;34371;-84
2022/02/14 23:28:12;;;;;;;;;;;;;;;8.80;67.71;99622.91;4476043;31;33106;-86
2022/02/14 23:33:42;;;;;;;;;;;;;;;;;;;;;
2022/02/14 23:36:39;;;;;;;;;;;;;;;;;;;;;
2022/02/14 23:40:22;;;;;;;;;;;;;;;8.48;68.27;99618.78;4443156;32;34594;-85
2022/02/14 23:46:29;;;;;;;;;;;;;;;8.65;67.27;99616.31;4415463;32;35789;-84
